Time;durP1;ratioP1;P1;durP2;ratioP2;P2;SDS_P1;SDS_P2;PMS_P1;PMS_P2;Temp;Humidity;BMP_temperature;BMP_pressure;BME280_temperature;BME280_humidity;BME280_pressure;Samples;Min_cycle;Max_cycle;Signal;HPM_P1;HPM_P2
2022/01/14 00:01:30;;;;;;;5.27;3.07;;;4.30;83.40;;;;;;4959090;28;20026;-71
2022/01/14 00:03:55;;;;;;;5.55;3.00;;;4.30;83.90;;;;;;4970785;28;20031;-72
2022/01/14 00:06:22;;;;;;;7.17;3.50;;;4.30;83.50;;;;;;4968262;28;20053;-71
2022/01/14 00:08:49;;;;;;;6.28;3.05;;;4.40;83.10;;;;;;4970786;28;20026;-71
2022/01/14 00:55:30;;;;;;;8.05;4.78;;;4.50;87.30;;;;;;4966888;28;20084;-71
2022/01/14 01:00:33;;;;;;;7.82;3.20;;;4.60;87.00;;;;;;4971975;28;20623;-71
2022/01/14 01:03:00;;;;;;;6.32;3.00;;;4.60;87.20;;;;;;4963261;28;20018;-71
2022/01/14 01:05:26;;;;;;;4.95;2.90;;;4.60;86.40;;;;;;4968840;28;20034;-71
2022/01/14 01:08:03;;;;;;;6.57;3.30;;;4.50;86.40;;;;;;4967852;28;20026;-72
2022/01/14 01:10:32;;;;;;;8.13;2.90;;;4.50;86.30;;;;;;4970187;28;20030;-72
2022/01/14 01:13:13;;;;;;;8.20;3.67;;;4.50;86.20;;;;;;4966148;28;20068;-71
2022/01/14 01:15:39;;;;;;;6.00;3.20;;;4.60;86.10;;;;;;4974004;28;20026;-71
2022/01/14 01:18:05;;;;;;;6.53;3.17;;;4.60;86.00;;;;;;4963108;28;20019;-71
2022/01/14 01:20:31;;;;;;;6.07;3.23;;;4.60;86.40;;;;;;4973516;28;20446;-71
2022/01/14 01:22:57;;;;;;;7.03;3.25;;;4.70;86.10;;;;;;4966316;28;20052;-72
2022/01/14 01:25:26;;;;;;;5.37;2.70;;;4.60;86.40;;;;;;4968998;28;20089;-71
2022/01/14 01:27:54;;;;;;;6.03;3.25;;;4.60;86.50;;;;;;4964210;28;20031;-72
2022/01/14 01:32:58;;;;;;;6.80;2.90;;;4.60;86.30;;;;;;4965219;28;20022;-71
2022/01/14 01:35:25;;;;;;;5.80;2.70;;;4.70;86.40;;;;;;4972235;28;20058;-71
2022/01/14 01:37:52;;;;;;;6.55;3.13;;;4.70;86.40;;;;;;4967712;28;20472;-71
2022/01/14 01:40:20;;;;;;;4.93;2.95;;;4.70;87.00;;;;;;4973151;28;20054;-71
2022/01/14 01:42:46;;;;;;;6.70;2.80;;;4.70;87.10;;;;;;4970144;28;20027;-71
2022/01/14 01:45:20;;;;;;;4.53;2.57;;;4.70;87.50;;;;;;4969300;28;21587;-71
2022/01/14 01:47:50;;;;;;;5.88;2.60;;;4.70;87.30;;;;;;4966326;28;20599;-72
2022/01/14 01:50:20;;;;;;;4.93;2.67;;;4.70;86.90;;;;;;4970042;28;20946;-72
2022/01/14 01:52:45;;;;;;;5.40;2.50;;;4.70;86.10;;;;;;4968219;28;20435;-71
2022/01/14 01:55:12;;;;;;;5.23;2.70;;;4.70;85.50;;;;;;4964756;28;20037;-71
2022/01/14 01:57:38;;;;;;;8.00;3.25;;;4.60;85.40;;;;;;4968272;28;20539;-71
2022/01/14 02:00:06;;;;;;;5.10;2.20;;;4.60;85.90;;;;;;4965745;28;20029;-72
2022/01/14 02:02:35;;;;;;;5.28;2.50;;;4.60;86.60;;;;;;4966016;28;20479;-71
2022/01/14 02:05:02;;;;;;;6.47;2.83;;;4.60;85.80;;;;;;4964720;28;20075;-71
2022/01/14 02:07:30;;;;;;;7.05;2.72;;;4.70;85.50;;;;;;4968079;28;20431;-71
2022/01/14 02:09:59;;;;;;;6.65;2.42;;;4.70;85.30;;;;;;4967433;28;20033;-71
2022/01/14 02:12:33;;;;;;;4.97;2.88;;;4.70;84.60;;;;;;4970620;28;20143;-72
2022/01/14 02:15:10;;;;;;;6.05;2.85;;;4.70;84.50;;;;;;4968144;28;20015;-72
2022/01/14 02:23:07;;;;;;;4.65;2.53;;;4.60;82.40;;;;;;4962573;28;20847;-71
2022/01/14 02:25:34;;;;;;;6.00;2.75;;;4.60;82.40;;;;;;4967063;28;20053;-71
2022/01/14 02:28:02;;;;;;;7.70;3.10;;;4.60;82.10;;;;;;4960152;28;20031;-71
2022/01/14 02:30:30;;;;;;;5.72;2.45;;;4.50;82.00;;;;;;4967686;28;20034;-71
2022/01/14 02:32:57;;;;;;;4.88;2.47;;;4.50;82.20;;;;;;4967012;28;20034;-71
2022/01/14 02:35:22;;;;;;;4.43;2.40;;;4.50;82.30;;;;;;4967661;28;20034;-71
2022/01/14 02:37:48;;;;;;;7.20;2.47;;;4.60;81.90;;;;;;4966856;28;20049;-71
2022/01/14 02:40:15;;;;;;;4.93;2.53;;;4.60;81.20;;;;;;4966550;28;20018;-71
2022/01/14 02:42:41;;;;;;;7.50;2.78;;;4.60;81.40;;;;;;4968424;28;20029;-71
2022/01/14 02:45:10;;;;;;;5.83;2.30;;;4.50;81.00;;;;;;4965036;28;20023;-71
2022/01/14 02:47:37;;;;;;;4.45;2.60;;;4.50;80.90;;;;;;4970555;28;20045;-72
2022/01/14 02:50:09;;;;;;;4.38;2.22;;;4.50;81.20;;;;;;4962049;28;20026;-72
2022/01/14 02:55:32;;;;;;;4.20;2.20;;;4.40;81.90;;;;;;4962890;28;20049;-72
2022/01/14 02:57:59;;;;;;;7.70;3.00;;;4.40;82.30;;;;;;4966575;28;20023;-71
2022/01/14 03:00:29;;;;;;;4.40;2.40;;;4.40;83.30;;;;;;4972366;28;20022;-71
2022/01/14 03:02:58;;;;;;;4.60;2.80;;;4.40;82.80;;;;;;4966257;28;20030;-71
2022/01/14 03:05:27;;;;;;;5.50;2.72;;;4.30;82.60;;;;;;4965811;28;20026;-71
2022/01/14 03:07:53;;;;;;;5.85;3.10;;;4.30;82.90;;;;;;4962580;28;20021;-71
2022/01/14 03:10:20;;;;;;;6.10;2.87;;;4.20;83.10;;;;;;4965261;28;20023;-71
2022/01/14 03:36:23;;;;;;;6.85;2.88;;;4.20;82.40;;;;;;4967100;28;20036;-71
2022/01/14 03:38:49;;;;;;;5.88;3.03;;;4.20;82.00;;;;;;4969030;28;20018;-71
2022/01/14 03:41:14;;;;;;;5.63;2.90;;;4.20;81.50;;;;;;4971594;28;20472;-71
2022/01/14 03:43:41;;;;;;;7.10;2.80;;;4.30;81.50;;;;;;4973810;28;20023;-71
2022/01/14 03:46:07;;;;;;;5.90;2.83;;;4.20;81.70;;;;;;4965616;28;20015;-71
2022/01/14 03:48:34;;;;;;;7.93;3.10;;;4.30;82.10;;;;;;4966603;28;20053;-72
2022/01/14 03:51:00;;;;;;;6.00;2.75;;;4.30;82.70;;;;;;4969222;28;20034;-71
2022/01/14 03:53:26;;;;;;;7.23;3.23;;;4.30;82.50;;;;;;4970806;28;20037;-71
2022/01/14 03:55:52;;;;;;;7.63;3.42;;;4.30;82.10;;;;;;4967155;28;20596;-70
2022/01/14 03:58:18;;;;;;;7.70;3.50;;;4.30;82.50;;;;;;4974133;28;20038;-71
2022/01/14 04:00:45;;;;;;;6.40;3.40;;;4.30;84.50;;;;;;4971844;28;21518;-71
2022/01/14 04:03:11;;;;;;;11.07;4.15;;;4.20;84.60;;;;;;4970982;28;20201;-71
2022/01/14 04:05:38;;;;;;;8.67;3.77;;;4.20;86.20;;;;;;4973377;28;20041;-72
2022/01/14 04:08:04;;;;;;;7.45;3.70;;;4.10;87.30;;;;;;4966265;28;20548;-71
2022/01/14 04:10:30;;;;;;;7.00;3.88;;;4.10;88.10;;;;;;4994160;28;20044;-71
2022/01/14 04:13:06;;;;;;;8.43;3.50;;;4.00;89.40;;;;;;4966439;28;21460;-71
2022/01/14 04:15:47;;;;;;;7.72;3.65;;;4.00;90.60;;;;;;4970408;28;20137;-72
2022/01/14 04:18:18;;;;;;;6.18;3.38;;;3.90;90.70;;;;;;4965207;28;20072;-71
2022/01/14 04:20:49;;;;;;;7.38;3.70;;;3.90;91.10;;;;;;4971407;28;20129;-71
2022/01/14 04:23:22;;;;;;;7.45;3.65;;;3.90;91.30;;;;;;4972496;28;20026;-71
2022/01/14 04:25:48;;;;;;;8.27;3.70;;;4.00;91.40;;;;;;4973656;28;20464;-71
2022/01/14 04:28:15;;;;;;;7.60;3.70;;;4.00;91.30;;;;;;4968905;28;20039;-71
2022/01/14 04:30:42;;;;;;;7.95;3.67;;;4.00;91.10;;;;;;4967939;28;20488;-71
2022/01/14 04:33:07;;;;;;;6.45;3.15;;;4.00;90.90;;;;;;4965243;28;20599;-71
2022/01/14 04:35:33;;;;;;;8.13;3.47;;;4.00;90.80;;;;;;4970301;28;20030;-71
2022/01/14 04:38:00;;;;;;;7.22;3.45;;;4.00;90.90;;;;;;4966325;28;20018;-72
2022/01/14 04:40:26;;;;;;;7.13;3.58;;;4.10;91.00;;;;;;4965682;28;20034;-71
2022/01/14 04:42:53;;;;;;;6.07;3.33;;;4.00;91.00;;;;;;4969856;28;20029;-71
2022/01/14 04:48:06;;;;;;;6.90;3.08;;;4.10;91.20;;;;;;4961259;28;20078;-71
2022/01/14 04:50:32;;;;;;;11.07;3.15;;;4.10;91.20;;;;;;4968203;28;20467;-72
2022/01/14 04:53:00;;;;;;;5.80;3.50;;;4.10;91.10;;;;;;4969600;28;20054;-71
2022/01/14 04:55:27;;;;;;;6.97;3.38;;;4.10;91.20;;;;;;4968643;28;20031;-71
2022/01/14 04:57:54;;;;;;;7.25;3.72;;;4.10;91.40;;;;;;4970334;28;20054;-71
2022/01/14 05:00:22;;;;;;;;;;;4.20;91.60;;;;;;4969766;28;20349;-71
2022/01/14 05:02:48;;;;;;;4.70;2.38;;;4.20;91.70;;;;;;4972672;28;19910;-71
2022/01/14 05:05:17;;;;;;;4.72;2.70;;;4.30;91.50;;;;;;4966844;28;20038;-72
2022/01/14 05:07:46;;;;;;;6.75;2.78;;;4.30;91.50;;;;;;4990101;28;20031;-71
2022/01/14 05:10:34;;;;;;;5.22;2.78;;;4.40;91.60;;;;;;4963224;28;20057;-72
2022/01/14 05:13:01;;;;;;;5.57;2.70;;;4.40;91.70;;;;;;4965664;28;20023;-71
2022/01/14 05:15:28;;;;;;;5.63;2.80;;;4.40;91.50;;;;;;4970048;28;20669;-71
2022/01/14 05:17:53;;;;;;;;;;;4.40;91.30;;;;;;4970888;28;20070;-71
2022/01/14 05:20:20;;;;;;;7.82;2.92;;;4.40;91.70;;;;;;4965835;28;19992;-71
2022/01/14 05:22:47;;;;;;;6.68;2.83;;;4.40;91.40;;;;;;4968692;28;20049;-71
2022/01/14 05:25:14;;;;;;;5.10;2.38;;;4.40;91.80;;;;;;4966102;28;20041;-71
2022/01/14 05:27:42;;;;;;;7.28;3.40;;;4.40;91.70;;;;;;4970355;28;20571;-71
2022/01/14 05:30:09;;;;;;;6.63;2.72;;;4.50;91.60;;;;;;4968680;28;20026;-71
2022/01/14 05:32:36;;;;;;;6.30;3.42;;;4.40;91.90;;;;;;4970274;28;20033;-71
2022/01/14 05:35:02;;;;;;;6.05;2.92;;;4.50;91.60;;;;;;4963945;28;20034;-71
2022/01/14 05:37:28;;;;;;;;;;;4.50;91.50;;;;;;4969660;28;20030;-72
2022/01/14 05:39:56;;;;;;;5.30;3.08;;;4.50;91.60;;;;;;4971544;28;19925;-71
2022/01/14 05:42:21;;;;;;;6.53;3.08;;;4.50;91.80;;;;;;4969555;28;20019;-71
2022/01/14 05:44:47;;;;;;;5.87;2.73;;;4.60;92.10;;;;;;4971191;28;20333;-71
2022/01/14 05:47:14;;;;;;;5.10;2.63;;;4.60;92.20;;;;;;4964135;28;20031;-71
2022/01/14 05:49:40;;;;;;;;;;;4.60;92.00;;;;;;4969456;28;20034;-71
2022/01/14 05:52:05;;;;;;;5.18;2.70;;;4.60;91.80;;;;;;4963593;28;19941;-71
2022/01/14 05:54:32;;;;;;;7.00;3.10;;;4.60;91.80;;;;;;4973803;28;20026;-73
2022/01/14 05:56:58;;;;;;;4.90;2.65;;;4.60;91.80;;;;;;4962027;28;20137;-74
2022/01/14 05:59:23;;;;;;;5.40;2.57;;;4.60;91.90;;;;;;4971854;28;20102;-71
2022/01/14 06:01:52;;;;;;;6.30;2.50;;;4.70;92.00;;;;;;4965302;28;20027;-71
2022/01/14 06:04:18;;;;;;;4.68;2.67;;;4.70;91.90;;;;;;4966558;28;20129;-71
2022/01/14 06:06:43;;;;;;;6.53;2.57;;;4.60;91.80;;;;;;4970771;28;20034;-74
2022/01/14 06:09:10;;;;;;;5.00;3.00;;;4.70;91.60;;;;;;4967671;28;20364;-74
2022/01/14 06:11:37;;;;;;;4.78;2.35;;;4.70;91.50;;;;;;4970503;28;20045;-71
2022/01/14 06:14:03;;;;;;;7.93;3.05;;;4.70;91.50;;;;;;4961577;28;20060;-71
2022/01/14 06:16:28;;;;;;;4.73;2.27;;;4.60;91.40;;;;;;4968071;28;20166;-71
2022/01/14 06:18:55;;;;;;;3.80;2.20;;;4.60;91.20;;;;;;4971775;28;20026;-72
2022/01/14 06:21:20;;;;;;;3.70;2.15;;;4.60;91.20;;;;;;4965837;28;20472;-71
2022/01/14 06:23:46;;;;;;;5.70;2.57;;;4.60;91.30;;;;;;4969967;28;20034;-71
2022/01/14 06:26:12;;;;;;;5.27;2.20;;;4.70;97.10;;;;;;4963551;28;20041;-68
2022/01/14 06:28:37;;;;;;;4.43;2.30;;;5.10;94.10;;;;;;4966868;28;20027;-73
2022/01/14 06:31:03;;;;;;;4.87;2.40;;;5.40;90.70;;;;;;4964883;28;20380;-72
2022/01/14 06:33:29;;;;;;;4.93;2.40;;;5.20;90.40;;;;;;4966296;28;20084;-71
2022/01/14 06:35:55;;;;;;;4.17;2.33;;;5.00;90.90;;;;;;4967463;28;20038;-72
2022/01/14 06:38:23;;;;;;;7.63;2.80;;;4.90;91.70;;;;;;4958196;28;20027;-71
2022/01/14 06:40:50;;;;;;;6.82;2.78;;;4.70;91.90;;;;;;4967884;28;20086;-72
2022/01/14 06:43:16;;;;;;;4.28;2.10;;;4.70;92.30;;;;;;4958719;28;20434;-72
2022/01/14 06:45:42;;;;;;;6.05;3.20;;;4.70;92.50;;;;;;4966561;28;20030;-71
2022/01/14 06:48:10;;;;;;;6.55;2.70;;;4.70;92.50;;;;;;4959883;28;20452;-72
2022/01/14 06:50:35;;;;;;;4.28;2.40;;;4.90;92.00;;;;;;4967386;28;20138;-71
2022/01/14 06:53:01;;;;;;;6.27;2.77;;;5.20;91.50;;;;;;4962690;28;20110;-72
2022/01/14 06:55:27;;;;;;;4.65;2.60;;;5.40;91.00;;;;;;4969278;28;20026;-72
2022/01/14 06:57:53;;;;;;;4.73;2.50;;;5.80;89.90;;;;;;4966709;28;20054;-73
2022/01/14 07:00:19;;;;;;;8.47;2.73;;;6.10;86.60;;;;;;4964076;28;20640;-71
2022/01/14 07:02:45;;;;;;;5.45;2.63;;;6.40;84.30;;;;;;4966304;28;20670;-71
2022/01/14 07:05:12;;;;;;;5.73;2.50;;;6.70;81.80;;;;;;4958165;28;20069;-73
2022/01/14 07:07:39;;;;;;;3.90;2.63;;;7.00;80.20;;;;;;4965901;28;20799;-71
2022/01/14 07:10:06;;;;;;;5.15;2.60;;;7.40;77.30;;;;;;4959915;28;20771;-72
2022/01/14 07:12:35;;;;;;;4.78;2.55;;;7.90;74.50;;;;;;4965817;28;20034;-73
2022/01/14 07:15:01;;;;;;;5.53;2.45;;;8.40;70.60;;;;;;4965995;28;20026;-72
2022/01/14 07:17:28;;;;;;;8.73;3.55;;;8.70;67.90;;;;;;4965805;28;20495;-75
2022/01/14 07:19:58;;;;;;;6.30;3.10;;;9.30;65.70;;;;;;4964520;28;20030;-73
2022/01/14 07:22:23;;;;;;;8.32;2.75;;;9.90;62.10;;;;;;4963703;28;20026;-75
2022/01/14 07:24:49;;;;;;;59.53;6.33;;;10.20;59.30;;;;;;4963444;28;20033;-72
2022/01/14 07:27:15;;;;;;;8.02;2.75;;;10.40;58.00;;;;;;4962504;28;20042;-72
2022/01/14 07:29:42;;;;;;;6.43;3.07;;;10.70;56.50;;;;;;4963957;28;20026;-71
2022/01/14 07:32:08;;;;;;;5.45;3.10;;;11.00;54.90;;;;;;4959906;28;20022;-72
2022/01/14 07:34:34;;;;;;;7.75;3.63;;;11.00;54.40;;;;;;4961725;28;22010;-73
2022/01/14 07:37:01;;;;;;;6.63;3.30;;;11.00;54.20;;;;;;4966427;28;20027;-71
2022/01/14 07:39:28;;;;;;;4.75;2.92;;;11.00;54.30;;;;;;4964390;28;20748;-72
2022/01/14 07:41:55;;;;;;;6.22;3.10;;;11.00;54.00;;;;;;4966651;28;20062;-71
2022/01/14 07:44:21;;;;;;;;;;;11.10;53.60;;;;;;4959487;28;20088;-72
2022/01/14 07:46:48;;;;;;;5.57;2.90;;;11.00;53.60;;;;;;4963298;28;20465;-72
2022/01/14 07:49:14;;;;;;;6.78;2.95;;;10.80;53.90;;;;;;4962224;28;21761;-72
2022/01/14 07:51:40;;;;;;;7.05;3.33;;;10.70;53.50;;;;;;4969691;28;20128;-73
2022/01/14 07:54:08;;;;;;;5.15;2.70;;;10.50;53.60;;;;;;4962350;28;20034;-72
2022/01/14 07:56:38;;;;;;;19.13;4.15;;;9.90;54.90;;;;;;4970122;28;20034;-72
2022/01/14 07:59:05;;;;;;;43.33;6.13;;;9.40;56.80;;;;;;4960660;28;20026;-72
2022/01/14 08:01:33;;;;;;;134.93;11.20;;;9.20;58.10;;;;;;4966973;28;20044;-74
2022/01/14 08:04:00;;;;;;;35.08;5.20;;;9.00;59.00;;;;;;4963328;28;20586;-71
2022/01/14 08:06:27;;;;;;;19.48;4.35;;;8.90;60.10;;;;;;4957800;28;21399;-72
2022/01/14 08:08:53;;;;;;;210.60;17.17;;;8.80;60.80;;;;;;4963578;28;20158;-72
2022/01/14 08:11:19;;;;;;;12.07;3.50;;;8.60;61.90;;;;;;4962478;28;20033;-75
2022/01/14 08:13:45;;;;;;;5.27;2.83;;;8.60;63.20;;;;;;4964636;28;20031;-72
2022/01/14 08:16:11;;;;;;;546.50;51.80;;;8.50;64.50;;;;;;4957609;28;20078;-74
2022/01/14 08:18:37;;;;;;;8.43;3.10;;;8.30;65.40;;;;;;4961679;28;20035;-76
2022/01/14 08:21:04;;;;;;;15.93;3.17;;;8.40;65.50;;;;;;4965541;28;20030;-72
2022/01/14 08:23:30;;;;;;;5.30;2.88;;;8.50;65.30;;;;;;4968301;28;20015;-75
2022/01/14 08:25:57;;;;;;;8.68;2.85;;;8.80;64.10;;;;;;4966107;28;20034;-71
2022/01/14 08:28:26;;;;;;;4.65;2.47;;;9.70;61.00;;;;;;4964874;28;20044;-72
2022/01/14 08:30:51;;;;;;;10.48;2.97;;;10.40;57.00;;;;;;4971341;28;20038;-71
2022/01/14 08:33:18;;;;;;;10.32;2.50;;;11.10;53.80;;;;;;4966139;28;20018;-72
2022/01/14 08:35:44;;;;;;;5.22;2.90;;;11.90;51.60;;;;;;4971058;28;20034;-72
2022/01/14 08:38:13;;;;;;;7.80;2.50;;;12.40;49.30;;;;;;4966321;28;20722;-72
2022/01/14 08:40:39;;;;;;;10.23;2.90;;;13.20;47.80;;;;;;4968787;28;20026;-72
2022/01/14 08:43:05;;;;;;;4.15;2.33;;;13.80;45.50;;;;;;4993697;28;20019;-72
2022/01/14 08:45:32;;;;;;;7.93;3.13;;;14.10;44.70;;;;;;4972156;28;20034;-72
2022/01/14 08:47:59;;;;;;;8.38;2.50;;;14.40;44.10;;;;;;4969141;28;20042;-72
2022/01/14 08:50:27;;;;;;;6.43;2.85;;;14.60;43.50;;;;;;4966742;28;20022;-73
2022/01/14 08:52:56;;;;;;;3.75;2.42;;;15.10;42.40;;;;;;4975149;28;20744;-72
2022/01/14 08:55:22;;;;;;;5.45;2.67;;;15.60;41.10;;;;;;4967354;28;20064;-72
2022/01/14 08:57:50;;;;;;;4.53;2.75;;;16.10;40.20;;;;;;4968567;28;20579;-72
2022/01/14 09:00:17;;;;;;;3.97;2.50;;;15.90;40.20;;;;;;4969134;28;20421;-72
2022/01/14 09:02:43;;;;;;;5.78;2.65;;;16.00;40.20;;;;;;4970145;28;20115;-72
2022/01/14 09:05:10;;;;;;;4.07;2.63;;;16.20;40.20;;;;;;4961194;28;20022;-73
2022/01/14 09:07:40;;;;;;;10.00;3.60;;;16.80;39.80;;;;;;4968901;28;20030;-74
2022/01/14 09:10:08;;;;;;;5.57;2.90;;;17.00;42.40;;;;;;4981887;28;20022;-75
2022/01/14 09:12:34;;;;;;;6.60;2.80;;;17.30;39.50;;;;;;4968855;28;20033;-74
2022/01/14 09:15:07;;;;;;;6.03;2.80;;;17.10;41.80;;;;;;4969928;28;20046;-75
2022/01/14 09:17:33;;;;;;;30.55;4.93;;;17.00;40.00;;;;;;4966303;28;20131;-71
2022/01/14 09:20:02;;;;;;;38.92;5.20;;;16.70;39.00;;;;;;4972646;28;20027;-72
2022/01/14 09:22:30;;;;;;;12.80;3.55;;;16.30;39.40;;;;;;4962364;28;20076;-72
2022/01/14 09:24:58;;;;;;;11.55;3.45;;;16.30;39.70;;;;;;4969810;28;20037;-72
2022/01/14 09:27:23;;;;;;;97.47;11.32;;;16.50;39.80;;;;;;4965826;28;20116;-71
2022/01/14 09:29:49;;;;;;;8.45;3.15;;;16.50;39.20;;;;;;4964741;28;20097;-72
2022/01/14 09:32:15;;;;;;;8.73;3.40;;;16.30;39.30;;;;;;4969538;28;20046;-72
2022/01/14 09:34:40;;;;;;;10.02;3.42;;;16.40;39.00;;;;;;4970444;28;20109;-72
2022/01/14 09:37:06;;;;;;;7.35;3.47;;;16.60;38.90;;;;;;4968613;28;20113;-72
2022/01/14 09:39:33;;;;;;;5.00;3.10;;;16.70;38.50;;;;;;4968501;28;20145;-72
2022/01/14 09:41:59;;;;;;;5.28;3.47;;;16.90;39.00;;;;;;4964209;28;20038;-72
2022/01/14 09:44:25;;;;;;;;;;;17.20;38.00;;;;;;4965945;28;20030;-72
2022/01/14 09:46:52;;;;;;;4.82;2.88;;;17.10;38.30;;;;;;4963716;28;20443;-72
2022/01/14 09:49:18;;;;;;;5.60;3.13;;;17.20;37.90;;;;;;4961829;28;20058;-72
2022/01/14 09:51:44;;;;;;;19.10;3.78;;;17.20;38.40;;;;;;4963235;28;20121;-72
2022/01/14 09:54:11;;;;;;;15.05;3.22;;;17.30;38.30;;;;;;4967329;28;20547;-72
2022/01/14 09:56:38;;;;;;;9.40;3.97;;;17.50;37.90;;;;;;4967714;28;20065;-72
2022/01/14 09:59:05;;;;;;;5.65;2.97;;;17.40;38.50;;;;;;4967039;28;20018;-73
2022/01/14 10:01:41;;;;;;;7.68;3.42;;;17.40;39.00;;;;;;4967835;28;20045;-72
2022/01/14 10:04:12;;;;;;;6.57;3.60;;;17.80;38.60;;;;;;4966252;28;20031;-72
2022/01/14 10:06:43;;;;;;;6.30;3.47;;;17.60;38.90;;;;;;4967835;28;20760;-72
2022/01/14 10:09:16;;;;;;;5.60;3.22;;;17.50;39.00;;;;;;4990003;28;20405;-72
2022/01/14 10:11:44;;;;;;;7.88;3.80;;;17.40;39.30;;;;;;4967447;28;20350;-73
2022/01/14 10:14:19;;;;;;;6.97;3.65;;;17.50;39.20;;;;;;4966537;28;20022;-73
2022/01/14 10:16:53;;;;;;;11.68;3.72;;;17.40;39.10;;;;;;4960819;28;20082;-73
2022/01/14 10:19:24;;;;;;;10.57;3.95;;;17.60;38.50;;;;;;4970450;28;20030;-72
2022/01/14 10:21:51;;;;;;;11.38;4.13;;;17.40;38.50;;;;;;4957971;28;20130;-72
2022/01/14 10:24:18;;;;;;;4.40;3.38;;;17.00;38.80;;;;;;4963779;28;20054;-72
2022/01/14 10:26:59;;;;;;;25.75;4.90;;;16.60;39.10;;;;;;4962228;28;20062;-72
2022/01/14 10:29:32;;;;;;;59.47;6.57;;;16.20;40.20;;;;;;4967992;28;20030;-72
2022/01/14 10:32:00;;;;;;;6.30;2.80;;;16.30;40.00;;;;;;4965715;28;20108;-72
2022/01/14 10:34:27;;;;;;;54.72;6.32;;;16.30;40.00;;;;;;4971180;28;20069;-72
2022/01/14 10:37:09;;;;;;;6.10;2.17;;;16.30;40.00;;;;;;4960221;28;20014;-72
2022/01/14 10:39:54;;;;;;;5.68;2.55;;;16.10;39.80;;;;;;4972700;28;20490;-72
2022/01/14 10:42:35;;;;;;;7.20;2.63;;;16.30;39.70;;;;;;4966789;28;20023;-72
2022/01/14 10:45:18;;;;;;;4.72;2.60;;;16.20;39.60;;;;;;4967945;28;20436;-72
2022/01/14 10:48:05;;;;;;;6.75;2.75;;;16.30;39.60;;;;;;4985711;28;20022;-72
2022/01/14 10:50:52;;;;;;;5.43;2.33;;;15.90;40.20;;;;;;4972709;28;20025;-72
2022/01/14 10:53:42;;;;;;;3.58;2.15;;;15.70;40.80;;;;;;4968055;28;20133;-72
2022/01/14 10:56:19;;;;;;;3.58;2.25;;;15.70;40.70;;;;;;4970378;28;20029;-72
2022/01/14 10:58:47;;;;;;;4.28;2.10;;;15.70;40.90;;;;;;4959928;28;20032;-72
2022/01/14 11:01:17;;;;;;;2.83;2.30;;;15.70;40.80;;;;;;4968463;28;20029;-72
2022/01/14 11:03:59;;;;;;;2.80;1.83;;;15.70;41.10;;;;;;4972141;28;20113;-71
2022/01/14 11:06:42;;;;;;;2.45;1.50;;;15.40;41.30;;;;;;4970184;28;20046;-72
2022/01/14 11:09:16;;;;;;;3.10;1.80;;;15.30;41.70;;;;;;4984045;28;20022;-72
2022/01/14 11:11:45;;;;;;;2.75;1.80;;;15.00;42.20;;;;;;4970612;28;20039;-72
2022/01/14 11:14:11;;;;;;;2.63;1.60;;;14.80;42.40;;;;;;4967263;28;20027;-72
2022/01/14 11:16:38;;;;;;;4.63;1.55;;;14.50;42.90;;;;;;4966043;28;20051;-71
2022/01/14 11:19:07;;;;;;;2.85;1.58;;;14.10;42.90;;;;;;4961879;28;20039;-72
2022/01/14 11:24:23;;;;;;;4.60;1.73;;;13.60;44.00;;;;;;4967419;28;20400;-71
2022/01/14 11:26:52;;;;;;;2.00;1.55;;;13.40;44.30;;;;;;4964539;28;20054;-71
2022/01/14 11:29:21;;;;;;;2.65;1.60;;;13.20;44.90;;;;;;4966000;28;20071;-71
2022/01/14 11:32:02;;;;;;;3.50;1.70;;;13.00;45.30;;;;;;4968285;28;20118;-71
2022/01/14 11:34:45;;;;;;;2.30;1.50;;;13.00;45.70;;;;;;4967109;28;20034;-71
2022/01/14 11:37:30;;;;;;;2.85;1.67;;;12.70;46.40;;;;;;4958064;28;20073;-71
2022/01/14 11:39:58;;;;;;;2.17;1.75;;;12.70;46.80;;;;;;4959703;28;20034;-72
2022/01/14 11:42:41;;;;;;;4.03;1.60;;;12.50;47.30;;;;;;4966775;28;20022;-72
2022/01/14 11:45:07;;;;;;;4.68;1.60;;;12.30;47.80;;;;;;4960254;28;20033;-70
2022/01/14 11:47:44;;;;;;;3.92;2.20;;;12.50;50.80;;;;;;4962121;28;20023;-70
2022/01/14 11:50:19;;;;;;;2.67;1.70;;;12.70;53.90;;;;;;4962801;28;20110;-70
2022/01/14 11:52:46;;;;;;;2.72;1.85;;;12.80;49.90;;;;;;4964262;28;20035;-70
2022/01/14 11:55:24;;;;;;;5.00;1.77;;;12.80;49.10;;;;;;4958839;28;20030;-70
2022/01/14 11:57:53;;;;;;;4.88;1.80;;;12.80;49.70;;;;;;4962508;28;20911;-70
2022/01/14 12:00:29;;;;;;;2.90;1.70;;;12.90;48.80;;;;;;4972419;28;20042;-70
2022/01/14 12:03:25;;;;;;;4.37;1.57;;;12.80;49.10;;;;;;4968454;28;20029;-70
2022/01/14 12:05:56;;;;;;;2.72;1.50;;;12.80;48.70;;;;;;4971251;28;20334;-70
2022/01/14 12:08:27;;;;;;;6.47;2.00;;;12.80;50.00;;;;;;4968615;28;20022;-68
2022/01/14 12:11:16;;;;;;;3.25;2.03;;;12.90;49.40;;;;;;4971961;28;20035;-71
2022/01/14 12:13:54;;;;;;;3.13;1.70;;;12.90;47.50;;;;;;4968207;28;20118;-71
2022/01/14 12:16:35;;;;;;;3.35;1.77;;;12.70;47.70;;;;;;4967555;28;20044;-71
2022/01/14 12:19:02;;;;;;;2.33;1.60;;;12.70;47.80;;;;;;4966515;28;20029;-71
2022/01/14 12:21:50;;;;;;;2.17;1.60;;;12.50;48.40;;;;;;4973517;28;20030;-72
2022/01/14 12:24:18;;;;;;;;;;;12.40;49.30;;;;;;4966733;28;20025;-71
2022/01/14 12:27:09;;;;;;;3.38;2.13;;;12.40;49.70;;;;;;4972981;28;19913;-70
2022/01/14 12:29:48;;;;;;;2.65;1.65;;;12.50;50.00;;;;;;4971753;28;20029;-70
2022/01/14 12:32:29;;;;;;;3.85;1.60;;;12.40;50.60;;;;;;4966093;28;20860;-69
2022/01/14 12:34:55;;;;;;;1.90;1.60;;;12.30;51.40;;;;;;4972432;28;20041;-70
2022/01/14 12:37:39;;;;;;;3.37;1.87;;;12.40;51.80;;;;;;4969354;28;20022;-69
2022/01/14 12:40:12;;;;;;;15.38;2.83;;;12.30;51.90;;;;;;4966838;28;20019;-70
2022/01/14 12:42:40;;;;;;;15.32;2.53;;;12.30;52.20;;;;;;4972215;28;20027;-70
2022/01/14 12:45:11;;;;;;;28.25;3.92;;;12.20;52.80;;;;;;4968490;28;20522;-70
2022/01/14 12:47:41;;;;;;;7.97;2.50;;;12.20;52.90;;;;;;4974732;28;20018;-69
2022/01/14 12:50:10;;;;;;;5.68;2.35;;;12.10;52.90;;;;;;4965002;28;20558;-69
2022/01/14 12:52:50;;;;;;;14.90;2.58;;;12.10;52.50;;;;;;4970654;28;20129;-69
2022/01/14 12:55:16;;;;;;;10.52;2.25;;;12.00;52.10;;;;;;4964562;28;20026;-70
2022/01/14 12:57:42;;;;;;;20.23;2.60;;;12.00;51.80;;;;;;4967729;28;20853;-69
2022/01/14 13:00:10;;;;;;;15.27;2.80;;;11.90;51.00;;;;;;4963353;28;20038;-69
2022/01/14 13:02:35;;;;;;;12.15;2.72;;;11.80;50.50;;;;;;4970157;28;20027;-73
2022/01/14 13:05:05;;;;;;;7.53;2.20;;;11.80;49.60;;;;;;4965318;28;20398;-70
2022/01/14 13:07:32;;;;;;;7.22;1.90;;;11.70;49.70;;;;;;4971502;28;20023;-71
2022/01/14 13:09:59;;;;;;;6.40;1.77;;;11.60;49.50;;;;;;4963306;28;20384;-71
2022/01/14 13:12:33;;;;;;;6.70;1.90;;;11.40;49.80;;;;;;4968052;28;20030;-69
2022/01/14 13:15:03;;;;;;;15.38;2.50;;;11.40;50.30;;;;;;4966060;28;20029;-70
2022/01/14 13:17:41;;;;;;;20.75;3.60;;;11.40;51.00;;;;;;4970348;28;20026;-70
2022/01/14 13:20:10;;;;;;;7.10;2.28;;;11.30;51.40;;;;;;4966990;28;20030;-71
2022/01/14 13:22:37;;;;;;;54.65;5.90;;;11.20;51.70;;;;;;4974028;28;20022;-70
2022/01/14 13:25:30;;;;;;;16.45;2.92;;;11.20;52.00;;;;;;4969332;28;20026;-71
2022/01/14 13:27:59;;;;;;;6.50;2.40;;;11.10;52.00;;;;;;4965961;28;20038;-72
2022/01/14 13:30:37;;;;;;;5.65;2.00;;;11.00;52.30;;;;;;4966662;28;20022;-70
2022/01/14 13:33:07;;;;;;;31.58;4.35;;;10.90;52.80;;;;;;4968706;28;20476;-71
2022/01/14 13:35:35;;;;;;;21.70;4.32;;;10.70;53.20;;;;;;4965988;28;20132;-70
2022/01/14 13:38:03;;;;;;;4.50;2.13;;;10.70;54.60;;;;;;4968193;28;20027;-70
2022/01/14 13:40:33;;;;;;;4.68;2.10;;;10.60;54.40;;;;;;4965589;28;20061;-71
2022/01/14 13:43:21;;;;;;;4.82;1.83;;;10.60;54.80;;;;;;4971373;28;20026;-72
2022/01/14 13:45:49;;;;;;;5.43;2.20;;;10.50;55.30;;;;;;4965916;28;20026;-71
2022/01/14 13:48:26;;;;;;;7.75;2.60;;;10.40;56.50;;;;;;4966142;28;20063;-71
2022/01/14 13:50:55;;;;;;;3.20;2.10;;;10.30;56.30;;;;;;4969346;28;20030;-70
2022/01/14 13:53:27;;;;;;;3.45;1.98;;;10.20;56.70;;;;;;4988299;28;20126;-70
2022/01/14 13:56:02;;;;;;;3.75;2.08;;;10.20;57.10;;;;;;4969306;28;20132;-72
2022/01/14 13:58:28;;;;;;;4.75;2.10;;;10.10;57.20;;;;;;4963052;28;20054;-71
2022/01/14 14:01:02;;;;;;;3.95;2.25;;;10.00;57.20;;;;;;4969749;28;20018;-71
2022/01/14 14:03:43;;;;;;;5.97;2.42;;;9.90;57.50;;;;;;4964935;28;20146;-70
2022/01/14 14:06:24;;;;;;;5.30;2.05;;;9.80;58.00;;;;;;4968181;28;20015;-71
2022/01/14 14:17:13;;;;;;;4.05;2.15;;;9.60;60.20;;;;;;4964854;28;20053;-70
2022/01/14 14:19:44;;;;;;;6.13;2.30;;;9.60;61.10;;;;;;4962338;28;20062;-72
2022/01/14 14:22:21;;;;;;;2.97;1.83;;;9.40;61.70;;;;;;4967846;28;20019;-70
2022/01/14 14:25:16;;;;;;;5.80;2.70;;;9.40;62.60;;;;;;4966503;28;20030;-72
2022/01/14 14:28:04;;;;;;;6.20;2.97;;;9.30;63.30;;;;;;4967096;28;20045;-70
2022/01/14 14:30:37;;;;;;;4.40;2.20;;;9.20;63.90;;;;;;4966674;28;20110;-71
2022/01/14 14:33:04;;;;;;;4.10;2.42;;;9.20;64.20;;;;;;4974854;28;20025;-71
2022/01/14 14:35:35;;;;;;;7.53;2.53;;;9.10;64.70;;;;;;4962565;28;20034;-71
2022/01/14 14:38:07;;;;;;;3.65;2.13;;;9.00;65.00;;;;;;4965941;28;20093;-70
2022/01/14 14:40:35;;;;;;;4.22;2.17;;;9.00;68.60;;;;;;4985662;28;20105;-72